Time;durP1;ratioP1;P1;durP2;ratioP2;P2;SDS_P1;SDS_P2;PMS_P1;PMS_P2;Temp;Humidity;BMP_temperature;BMP_pressure;BME280_temperature;BME280_humidity;BME280_pressure;Samples;Min_cycle;Max_cycle;Signal;HPM_P1;HPM_P2
2021/09/28 00:00:10;;;;;;;9.30;2.70;;;11.30;99.90;;;;;;5036419;28;20683;-65
2021/09/28 00:02:39;;;;;;;5.60;1.60;;;11.40;99.90;;;;;;5032144;28;20284;-66
2021/09/28 00:05:09;;;;;;;7.87;2.00;;;11.40;99.90;;;;;;5038155;28;20224;-66
2021/09/28 00:07:38;;;;;;;7.47;2.10;;;11.40;99.90;;;;;;5038340;28;20189;-66
2021/09/28 00:10:07;;;;;;;8.70;2.03;;;11.40;99.90;;;;;;5036131;28;20307;-66
2021/09/28 00:12:35;;;;;;;4.33;1.83;;;11.50;99.90;;;;;;5035759;28;20204;-66
2021/09/28 00:15:05;;;;;;;9.70;2.40;;;11.50;99.90;;;;;;5038223;28;20195;-66
2021/09/28 00:17:33;;;;;;;10.47;1.83;;;11.50;99.90;;;;;;5035566;28;20197;-66
2021/09/28 00:20:02;;;;;;;8.53;1.90;;;11.50;99.90;;;;;;5037057;28;20228;-66
2021/09/28 00:22:32;;;;;;;5.87;1.93;;;11.50;99.90;;;;;;5036611;28;20239;-66
2021/09/28 00:25:01;;;;;;;10.57;2.20;;;11.50;99.90;;;;;;5035398;28;20685;-66
2021/09/28 00:27:30;;;;;;;8.57;2.10;;;11.50;99.90;;;;;;5036519;28;20253;-66
2021/09/28 00:30:02;;;;;;;9.47;1.90;;;11.50;99.90;;;;;;5038850;28;20374;-66
2021/09/28 00:32:31;;;;;;;6.13;2.33;;;11.50;99.90;;;;;;5035301;28;20196;-66
2021/09/28 00:35:00;;;;;;;6.70;1.80;;;11.50;99.90;;;;;;5039591;28;20196;-66
2021/09/28 00:37:28;;;;;;;13.97;2.33;;;11.50;99.90;;;;;;5039431;28;20189;-66
2021/09/28 00:39:58;;;;;;;8.60;2.03;;;11.50;99.90;;;;;;5036468;28;20842;-66
2021/09/28 00:42:26;;;;;;;9.13;2.10;;;11.50;99.90;;;;;;5039323;28;20518;-67
2021/09/28 00:44:54;;;;;;;5.47;2.00;;;11.40;99.90;;;;;;5037455;28;20225;-66
2021/09/28 00:47:23;;;;;;;8.80;2.07;;;11.50;99.90;;;;;;5033450;28;20287;-66
2021/09/28 00:49:51;;;;;;;3.33;1.77;;;11.40;99.90;;;;;;5035931;28;20236;-66
2021/09/28 00:52:21;;;;;;;5.50;2.40;;;11.40;99.90;;;;;;5039813;28;20188;-66
2021/09/28 00:54:50;;;;;;;7.83;1.80;;;11.30;99.90;;;;;;5035679;28;20295;-66
2021/09/28 00:57:20;;;;;;;10.03;2.20;;;11.30;99.90;;;;;;5033339;28;20193;-66
2021/09/28 00:59:49;;;;;;;8.60;2.00;;;11.40;99.90;;;;;;5030538;28;20205;-66
2021/09/28 01:02:18;;;;;;;7.23;2.03;;;11.40;99.90;;;;;;5028792;28;20321;-66
2021/09/28 01:04:47;;;;;;;10.00;2.67;;;11.30;99.90;;;;;;5029414;28;20221;-65
2021/09/28 01:07:15;;;;;;;3.77;1.90;;;11.30;99.90;;;;;;5034408;28;20193;-66
2021/09/28 01:09:44;;;;;;;6.20;2.20;;;11.30;99.90;;;;;;5030870;28;20313;-66
2021/09/28 01:12:12;;;;;;;6.83;1.80;;;11.30;99.90;;;;;;5033844;28;20283;-67
2021/09/28 01:14:44;;;;;;;6.80;2.40;;;11.30;99.90;;;;;;5030586;28;20228;-66
2021/09/28 01:17:14;;;;;;;7.43;2.20;;;11.30;99.90;;;;;;5059036;28;20228;-66
2021/09/28 01:19:43;;;;;;;9.83;2.87;;;11.30;99.90;;;;;;5026254;28;20671;-66
2021/09/28 01:22:15;;;;;;;8.37;2.10;;;11.30;99.90;;;;;;5033443;28;20201;-66
2021/09/28 01:24:47;;;;;;;11.07;2.43;;;11.30;99.90;;;;;;5036951;28;20216;-66
2021/09/28 01:27:17;;;;;;;7.27;2.33;;;11.20;99.90;;;;;;5041060;28;20663;-66
2021/09/28 01:29:45;;;;;;;6.00;2.17;;;11.20;99.90;;;;;;5034306;28;20251;-66
2021/09/28 01:32:16;;;;;;;9.20;2.30;;;11.30;99.90;;;;;;5035915;28;20285;-66
2021/09/28 01:34:44;;;;;;;8.93;2.13;;;11.20;99.90;;;;;;5033993;28;20509;-65
2021/09/28 01:37:14;;;;;;;7.43;2.23;;;11.20;99.90;;;;;;5033221;28;20248;-66
2021/09/28 01:39:43;;;;;;;7.80;2.23;;;11.20;99.90;;;;;;5036952;28;20200;-66
2021/09/28 01:42:11;;;;;;;6.03;2.10;;;11.20;99.90;;;;;;5034128;28;20592;-66
2021/09/28 01:44:40;;;;;;;6.67;2.30;;;11.20;99.90;;;;;;5031895;28;20658;-66
2021/09/28 01:47:08;;;;;;;3.43;2.47;;;11.20;99.90;;;;;;5044123;28;20229;-66
2021/09/28 01:49:37;;;;;;;9.43;2.63;;;11.20;99.90;;;;;;5034428;28;20197;-66
2021/09/28 01:52:06;;;;;;;6.57;2.20;;;11.20;99.90;;;;;;5026262;28;20236;-66
2021/09/28 01:54:35;;;;;;;7.27;2.37;;;11.10;99.90;;;;;;5031060;28;20313;-66
2021/09/28 01:57:04;;;;;;;5.87;2.50;;;11.10;99.90;;;;;;5037295;28;20291;-66
2021/09/28 01:59:33;;;;;;;6.17;2.27;;;11.10;99.90;;;;;;5032008;28;20611;-66
2021/09/28 02:02:01;;;;;;;8.77;3.00;;;11.10;99.90;;;;;;5034647;28;20391;-66
2021/09/28 02:04:30;;;;;;;8.37;2.60;;;11.10;99.90;;;;;;5033275;28;20335;-66
2021/09/28 02:06:59;;;;;;;5.13;2.17;;;11.10;99.90;;;;;;5030105;28;20197;-66
2021/09/28 02:09:29;;;;;;;6.60;2.00;;;11.10;99.90;;;;;;5026653;28;20193;-66
2021/09/28 02:11:59;;;;;;;5.10;2.27;;;11.10;99.90;;;;;;5035453;28;20236;-66
2021/09/28 02:14:28;;;;;;;4.77;2.27;;;11.10;99.90;;;;;;5038112;28;20188;-66
2021/09/28 02:16:58;;;;;;;3.23;2.20;;;11.10;99.90;;;;;;5030698;28;20676;-66
2021/09/28 02:19:26;;;;;;;8.20;2.57;;;11.00;99.90;;;;;;5061022;28;20185;-66
2021/09/28 02:21:55;;;;;;;8.33;2.43;;;11.00;99.90;;;;;;5032746;28;20215;-66
2021/09/28 02:24:23;;;;;;;7.87;2.33;;;11.00;99.90;;;;;;5035126;28;20430;-66
2021/09/28 02:26:52;;;;;;;3.10;2.10;;;11.00;99.90;;;;;;5035418;28;20205;-66
2021/09/28 02:29:22;;;;;;;8.43;2.40;;;11.00;99.90;;;;;;5047606;28;20228;-66
2021/09/28 02:31:50;;;;;;;7.10;2.20;;;10.90;99.90;;;;;;5038301;28;20217;-66
2021/09/28 02:34:19;;;;;;;5.13;2.50;;;10.90;99.90;;;;;;5032576;28;20284;-66
2021/09/28 02:36:47;;;;;;;4.67;2.57;;;10.90;99.90;;;;;;5033566;28;20551;-66
2021/09/28 02:39:15;;;;;;;6.30;2.40;;;10.90;99.90;;;;;;5061206;28;20204;-66
2021/09/28 02:41:44;;;;;;;10.63;3.00;;;10.80;99.90;;;;;;5032539;28;20225;-66
2021/09/28 02:44:16;;;;;;;5.50;2.40;;;10.80;99.90;;;;;;5047734;28;20669;-66
2021/09/28 02:46:46;;;;;;;6.70;2.57;;;10.80;99.90;;;;;;5035054;28;20224;-65
2021/09/28 02:49:15;;;;;;;5.57;2.23;;;10.80;99.90;;;;;;5029740;28;20613;-66
2021/09/28 02:51:43;;;;;;;2.30;2.10;;;10.80;99.90;;;;;;5036628;28;20711;-66
2021/09/28 02:54:12;;;;;;;10.70;2.47;;;10.80;99.90;;;;;;5064553;28;20251;-66
2021/09/28 02:56:41;;;;;;;6.20;2.90;;;10.70;99.90;;;;;;5038754;28;20189;-66
2021/09/28 02:59:09;;;;;;;4.30;2.20;;;10.70;99.90;;;;;;5036954;28;20521;-66
2021/09/28 03:01:37;;;;;;;6.63;2.33;;;10.70;99.90;;;;;;5027227;28;20225;-66
2021/09/28 03:04:08;;;;;;;6.47;2.43;;;10.70;99.90;;;;;;5026623;28;20229;-66
2021/09/28 03:06:36;;;;;;;8.40;2.60;;;10.70;99.90;;;;;;5032940;28;20222;-66
2021/09/28 03:09:05;;;;;;;6.30;2.33;;;10.70;99.90;;;;;;5032245;28;20239;-66
2021/09/28 03:11:33;;;;;;;8.30;2.40;;;10.70;99.90;;;;;;5031754;28;20313;-66
2021/09/28 03:14:02;;;;;;;5.60;2.43;;;10.70;99.90;;;;;;5034019;28;20220;-66
2021/09/28 03:16:30;;;;;;;5.67;2.70;;;10.70;99.90;;;;;;5037313;28;20254;-66
2021/09/28 03:18:59;;;;;;;9.23;2.40;;;10.70;99.90;;;;;;5037483;28;20205;-66
2021/09/28 03:21:29;;;;;;;5.90;2.43;;;10.60;99.90;;;;;;5031716;28;20220;-66
2021/09/28 03:23:57;;;;;;;9.20;2.40;;;10.60;99.90;;;;;;5036860;28;20251;-66
2021/09/28 03:26:26;;;;;;;6.50;2.07;;;10.60;99.90;;;;;;5030015;28;20727;-66
2021/09/28 03:28:55;;;;;;;4.80;2.70;;;10.50;99.90;;;;;;5033135;28;20201;-66
2021/09/28 03:31:23;;;;;;;7.60;2.43;;;10.60;99.90;;;;;;5031615;28;20208;-66
2021/09/28 03:33:52;;;;;;;10.10;2.40;;;10.60;99.90;;;;;;5038452;28;20201;-66
2021/09/28 03:36:22;;;;;;;8.73;2.40;;;10.50;99.90;;;;;;5042841;28;20193;-66
2021/09/28 03:38:52;;;;;;;7.10;2.10;;;10.50;99.90;;;;;;5039766;28;20221;-66
2021/09/28 03:41:20;;;;;;;6.00;2.40;;;10.60;99.90;;;;;;5061690;28;20682;-65
2021/09/28 03:43:49;;;;;;;6.07;2.87;;;10.60;99.90;;;;;;5035867;28;20235;-66
2021/09/28 03:46:17;;;;;;;8.93;2.90;;;10.60;99.90;;;;;;5036627;28;20185;-66
2021/09/28 03:48:46;;;;;;;10.30;2.50;;;10.60;99.90;;;;;;5043580;28;20192;-66
2021/09/28 03:51:15;;;;;;;9.73;2.80;;;10.50;99.90;;;;;;5041154;28;20221;-66
2021/09/28 03:53:44;;;;;;;5.67;2.23;;;10.50;99.90;;;;;;5042711;28;20224;-66
2021/09/28 03:56:14;;;;;;;6.73;2.30;;;10.50;99.90;;;;;;5036370;28;20216;-66
2021/09/28 03:58:42;;;;;;;4.67;2.63;;;10.50;99.90;;;;;;5042852;28;20235;-66
2021/09/28 04:01:11;;;;;;;9.53;2.37;;;10.40;99.90;;;;;;5030326;28;20221;-67
2021/09/28 04:03:42;;;;;;;6.63;2.30;;;10.40;99.90;;;;;;5033796;28;20680;-66
2021/09/28 04:06:11;;;;;;;7.13;2.20;;;10.40;99.90;;;;;;5060268;28;20185;-66
2021/09/28 04:08:39;;;;;;;9.70;2.90;;;10.40;99.90;;;;;;5034501;28;20716;-66
2021/09/28 04:11:08;;;;;;;7.67;2.27;;;10.40;99.90;;;;;;5028612;28;20205;-66
2021/09/28 04:13:39;;;;;;;7.53;2.50;;;10.40;99.90;;;;;;5032269;28;20204;-66
2021/09/28 04:16:08;;;;;;;8.80;2.60;;;10.40;99.90;;;;;;5030346;28;20580;-66
2021/09/28 04:19:08;;;;;;;3.53;1.90;;;10.30;99.90;;;;;;5033827;28;20575;-66
2021/09/28 04:22:15;;;;;;;7.97;2.30;;;10.30;99.90;;;;;;5033185;28;20205;-66
2021/09/28 04:25:25;;;;;;;13.77;2.60;;;10.20;99.90;;;;;;5032760;28;20205;-66
2021/09/28 04:27:54;;;;;;;10.77;2.27;;;10.30;99.90;;;;;;5043975;28;20197;-66
2021/09/28 04:30:24;;;;;;;14.23;2.47;;;10.30;99.90;;;;;;5035688;28;20255;-66
2021/09/28 04:32:52;;;;;;;8.90;2.57;;;10.30;99.90;;;;;;5037653;28;20216;-66
2021/09/28 04:35:21;;;;;;;6.00;2.13;;;10.30;99.90;;;;;;5037049;28;20730;-66
2021/09/28 04:37:49;;;;;;;7.20;2.60;;;10.40;99.90;;;;;;5043045;28;20247;-66
2021/09/28 04:40:18;;;;;;;7.83;2.33;;;10.40;99.90;;;;;;5035192;28;21388;-66
2021/09/28 04:42:46;;;;;;;8.73;2.80;;;10.30;99.90;;;;;;5036156;28;20188;-66
2021/09/28 04:45:15;;;;;;;10.33;2.90;;;10.30;99.90;;;;;;5038430;28;20301;-66
2021/09/28 04:47:45;;;;;;;6.20;2.93;;;10.30;99.90;;;;;;5048958;28;20283;-66
2021/09/28 04:50:13;;;;;;;9.87;2.70;;;10.30;99.90;;;;;;5031140;28;20687;-66
2021/09/28 04:52:42;;;;;;;5.10;2.17;;;10.30;99.90;;;;;;5046704;28;20292;-66
2021/09/28 04:55:11;;;;;;;6.17;2.53;;;10.40;99.90;;;;;;5038337;28;20251;-66
2021/09/28 04:57:39;;;;;;;6.67;2.33;;;10.40;99.90;;;;;;5032327;28;20284;-66
2021/09/28 05:00:10;;;;;;;10.17;2.50;;;10.40;99.90;;;;;;5033493;28;20186;-66
2021/09/28 05:02:39;;;;;;;9.60;2.40;;;10.40;99.90;;;;;;5035001;28;20196;-66
2021/09/28 05:05:12;;;;;;;6.97;2.43;;;10.40;99.90;;;;;;4989955;28;20327;-66
2021/09/28 05:07:40;;;;;;;13.43;2.57;;;10.40;99.90;;;;;;4994525;28;20420;-66
2021/09/28 05:10:09;;;;;;;7.77;2.63;;;10.50;99.90;;;;;;4993225;28;20265;-67
2021/09/28 05:12:37;;;;;;;14.10;2.87;;;10.50;99.90;;;;;;4995713;28;20697;-66
2021/09/28 05:15:06;;;;;;;6.53;2.13;;;10.50;99.90;;;;;;4991390;28;20677;-66
2021/09/28 05:17:35;;;;;;;6.53;2.57;;;10.40;99.90;;;;;;4987714;28;20206;-66
2021/09/28 05:20:05;;;;;;;8.17;2.70;;;10.40;99.90;;;;;;4987757;28;20198;-65
2021/09/28 05:22:35;;;;;;;10.97;2.53;;;10.40;99.90;;;;;;5019987;28;20644;-66
2021/09/28 05:25:04;;;;;;;6.10;2.40;;;10.40;99.90;;;;;;4999471;28;20641;-66
2021/09/28 05:27:32;;;;;;;7.27;2.30;;;10.40;99.90;;;;;;4994011;28;20229;-66
2021/09/28 05:30:01;;;;;;;7.43;2.83;;;10.40;99.90;;;;;;4992694;28;20221;-66
2021/09/28 05:32:29;;;;;;;6.07;2.50;;;10.30;99.90;;;;;;4995718;28;20822;-66
2021/09/28 05:34:57;;;;;;;5.47;2.50;;;10.40;99.90;;;;;;4995176;28;20241;-66
2021/09/28 05:37:26;;;;;;;6.20;2.40;;;10.30;99.90;;;;;;4990979;28;20740;-66
2021/09/28 05:39:56;;;;;;;5.57;2.43;;;10.30;99.90;;;;;;4995743;28;20731;-66
2021/09/28 05:42:24;;;;;;;7.77;2.63;;;10.30;99.90;;;;;;4988569;28;20187;-66
2021/09/28 05:44:52;;;;;;;6.57;2.20;;;10.30;99.90;;;;;;4990660;28;20253;-66
2021/09/28 05:47:21;;;;;;;5.10;3.03;;;10.30;99.90;;;;;;4992469;28;20618;-66
2021/09/28 05:49:52;;;;;;;8.60;2.90;;;10.40;99.90;;;;;;4990513;28;20206;-66
2021/09/28 05:52:20;;;;;;;8.10;3.10;;;10.30;99.90;;;;;;4989983;28;20767;-66
2021/09/28 05:54:49;;;;;;;9.80;3.33;;;10.30;99.90;;;;;;4997902;28;20241;-65
2021/09/28 05:57:20;;;;;;;8.50;2.80;;;10.30;99.90;;;;;;4992813;28;20198;-66
2021/09/28 05:59:49;;;;;;;6.90;2.70;;;10.30;99.90;;;;;;4989271;28;20253;-66
2021/09/28 06:02:18;;;;;;;12.27;2.90;;;10.30;99.90;;;;;;4988035;28;20555;-66
2021/09/28 06:04:47;;;;;;;7.03;2.70;;;10.30;99.90;;;;;;5021718;28;20341;-65
2021/09/28 06:07:17;;;;;;;9.03;2.90;;;10.30;99.90;;;;;;5029364;28;20204;-66
2021/09/28 06:09:48;;;;;;;10.33;2.90;;;10.30;99.90;;;;;;5032165;28;20224;-66
2021/09/28 06:12:18;;;;;;;11.67;3.10;;;10.30;99.90;;;;;;5039451;28;20211;-66
2021/09/28 06:14:47;;;;;;;6.10;3.00;;;10.40;99.90;;;;;;5036899;28;20262;-66
2021/09/28 06:17:16;;;;;;;7.77;2.90;;;10.40;99.90;;;;;;5039404;28;20674;-66
2021/09/28 06:19:44;;;;;;;8.13;2.50;;;10.50;99.90;;;;;;5043533;28;20216;-66
2021/09/28 06:22:13;;;;;;;11.47;3.50;;;10.60;99.90;;;;;;5035406;28;20250;-66
2021/09/28 06:24:41;;;;;;;6.90;2.60;;;10.60;99.90;;;;;;5038526;28;20735;-66
2021/09/28 06:27:10;;;;;;;11.93;3.90;;;10.60;99.90;;;;;;5041783;28;20189;-66
2021/09/28 06:29:39;;;;;;;8.27;2.70;;;10.60;99.90;;;;;;5041245;28;20288;-66
2021/09/28 06:32:09;;;;;;;11.50;2.90;;;10.70;99.90;;;;;;5033432;28;20303;-66
2021/09/28 06:34:37;;;;;;;10.13;2.97;;;10.80;99.90;;;;;;5033063;28;20266;-66
2021/09/28 06:37:06;;;;;;;6.53;2.93;;;10.90;99.90;;;;;;5040695;28;20224;-66
2021/09/28 06:39:34;;;;;;;9.53;2.50;;;10.90;99.90;;;;;;5041839;28;20234;-66
2021/09/28 06:42:06;;;;;;;8.33;2.50;;;11.00;99.90;;;;;;5029695;28;20193;-66
2021/09/28 06:44:34;;;;;;;6.77;2.60;;;11.00;99.90;;;;;;5024494;28;20216;-66
2021/09/28 06:47:04;;;;;;;7.60;2.60;;;11.10;99.90;;;;;;5030363;28;20194;-66
2021/09/28 06:49:33;;;;;;;5.07;2.50;;;11.20;99.90;;;;;;5031312;28;20196;-66
2021/09/28 06:52:04;;;;;;;8.40;2.57;;;11.20;99.90;;;;;;5034496;28;20182;-66
2021/09/28 06:54:32;;;;;;;7.77;2.70;;;11.30;99.90;;;;;;5034309;28;20278;-67
2021/09/28 06:57:00;;;;;;;7.97;2.43;;;11.30;99.90;;;;;;5026169;28;20204;-66
2021/09/28 06:59:31;;;;;;;4.43;2.43;;;11.40;99.90;;;;;;5019446;28;20189;-65
2021/09/28 07:01:59;;;;;;;5.67;2.43;;;11.60;99.90;;;;;;5062212;28;20287;-66
2021/09/28 07:04:29;;;;;;;12.13;3.30;;;11.70;99.90;;;;;;5028326;28;20221;-66
2021/09/28 07:06:59;;;;;;;10.50;3.10;;;11.80;99.90;;;;;;5023914;28;20954;-66
2021/09/28 07:09:27;;;;;;;8.43;2.57;;;11.90;99.90;;;;;;5022878;28;20295;-66
2021/09/28 07:11:58;;;;;;;7.90;2.70;;;12.00;99.90;;;;;;5034208;28;20197;-66
2021/09/28 07:14:26;;;;;;;5.27;2.53;;;12.10;99.90;;;;;;5041792;28;20309;-66
2021/09/28 07:16:55;;;;;;;8.93;2.57;;;12.20;99.90;;;;;;5030017;28;20634;-66
2021/09/28 07:19:23;;;;;;;8.57;2.83;;;12.20;99.90;;;;;;5029474;28;20193;-66
2021/09/28 07:21:53;;;;;;;7.23;2.60;;;12.30;99.90;;;;;;5032055;28;20973;-66
2021/09/28 07:24:21;;;;;;;7.57;2.53;;;12.30;99.90;;;;;;5033121;28;20275;-66
2021/09/28 07:26:50;;;;;;;3.97;2.50;;;12.40;99.90;;;;;;5034348;28;20193;-66
2021/09/28 07:29:19;;;;;;;7.70;2.80;;;12.40;99.90;;;;;;5036034;28;20193;-66
2021/09/28 07:31:47;;;;;;;7.87;2.27;;;12.60;99.90;;;;;;5046985;28;20200;-66
2021/09/28 07:34:18;;;;;;;7.03;2.47;;;12.80;99.90;;;;;;5030544;28;20305;-65
2021/09/28 07:36:47;;;;;;;5.13;2.40;;;12.90;99.90;;;;;;5024737;28;20202;-66
2021/09/28 07:39:17;;;;;;;4.73;2.60;;;13.00;99.90;;;;;;5037614;28;20683;-66
2021/09/28 07:41:45;;;;;;;5.07;2.50;;;13.10;99.90;;;;;;5033661;28;20558;-67
2021/09/28 07:44:13;;;;;;;5.87;2.60;;;13.20;99.90;;;;;;5032086;28;20189;-66
2021/09/28 07:46:44;;;;;;;9.10;2.87;;;13.50;99.90;;;;;;5029831;28;20199;-66
2021/09/28 07:49:13;;;;;;;8.77;2.27;;;13.40;99.90;;;;;;5027630;28;20193;-66
2021/09/28 07:51:42;;;;;;;6.57;2.63;;;13.50;99.90;;;;;;5020356;28;20292;-66
2021/09/28 07:54:10;;;;;;;11.10;2.43;;;13.60;99.90;;;;;;5027335;28;20403;-66
2021/09/28 07:56:42;;;;;;;15.00;2.80;;;13.70;99.90;;;;;;5022746;28;20200;-66
2021/09/28 07:59:11;;;;;;;9.57;2.50;;;13.70;99.90;;;;;;5030941;28;20292;-66
2021/09/28 08:01:39;;;;;;;5.97;2.30;;;13.90;99.90;;;;;;5024436;28;20224;-66
2021/09/28 08:04:08;;;;;;;4.93;2.30;;;14.10;99.90;;;;;;5026788;28;20301;-66
2021/09/28 08:06:36;;;;;;;9.37;2.40;;;14.10;99.90;;;;;;5026897;28;20244;-66
2021/09/28 08:09:05;;;;;;;7.60;2.33;;;14.20;99.90;;;;;;5053853;28;20262;-66
2021/09/28 08:11:33;;;;;;;7.97;2.27;;;14.40;99.90;;;;;;5028734;28;20733;-66
2021/09/28 08:14:03;;;;;;;5.97;2.47;;;14.50;99.90;;;;;;5030932;28;20225;-66
2021/09/28 08:16:33;;;;;;;8.67;2.63;;;14.70;99.90;;;;;;5028045;28;20205;-66
2021/09/28 08:19:02;;;;;;;8.17;2.63;;;14.80;99.90;;;;;;5024069;28;20676;-66
2021/09/28 08:21:31;;;;;;;6.47;2.07;;;14.80;99.90;;;;;;5017793;28;20289;-66
2021/09/28 08:23:59;;;;;;;5.90;2.30;;;14.70;99.90;;;;;;5028592;28;20229;-66
2021/09/28 08:29:15;;;;;;;6.80;2.17;;;14.40;99.90;;;;;;5029907;28;20200;-66
2021/09/28 08:31:46;;;;;;;10.73;2.20;;;14.40;99.90;;;;;;5029822;28;20197;-65
2021/09/28 08:34:16;;;;;;;6.07;2.70;;;14.50;99.90;;;;;;5031939;28;20316;-65
2021/09/28 08:36:46;;;;;;;6.47;2.30;;;14.60;99.90;;;;;;5032896;28;20201;-66
2021/09/28 08:39:17;;;;;;;6.33;2.20;;;14.90;99.90;;;;;;5017345;28;20229;-66
2021/09/28 08:41:47;;;;;;;9.40;2.43;;;15.20;99.90;;;;;;5018349;28;20742;-66
2021/09/28 08:44:17;;;;;;;7.47;2.37;;;15.60;99.90;;;;;;5029629;28;20272;-66
2021/09/28 08:46:47;;;;;;;10.43;2.53;;;15.60;99.90;;;;;;5043630;28;20287;-66
2021/09/28 08:49:18;;;;;;;7.00;1.90;;;15.60;99.90;;;;;;5036938;28;20258;-66
2021/09/28 08:51:47;;;;;;;5.47;2.10;;;15.70;99.90;;;;;;5031275;28;20185;-66
2021/09/28 08:54:16;;;;;;;6.60;2.10;;;15.90;99.90;;;;;;5034482;28;20227;-66
2021/09/28 08:56:45;;;;;;;9.53;2.30;;;15.80;99.90;;;;;;5032801;28;20228;-66
2021/09/28 08:59:15;;;;;;;7.83;2.10;;;15.90;99.90;;;;;;5028734;28;20223;-66
2021/09/28 09:01:57;;;;;;;6.73;2.03;;;16.00;99.90;;;;;;5025759;28;20193;-66
2021/09/28 09:04:26;;;;;;;9.03;2.07;;;16.10;99.90;;;;;;5020908;28;20240;-65
2021/09/28 09:06:57;;;;;;;4.40;1.93;;;16.00;99.90;;;;;;5019869;28;20200;-66
2021/09/28 09:09:49;;;;;;;7.57;2.23;;;15.90;99.90;;;;;;5024661;28;20296;-66
2021/09/28 09:12:33;;;;;;;8.43;2.10;;;15.90;99.90;;;;;;5027272;28;20253;-67
2021/09/28 09:15:19;;;;;;;7.93;1.93;;;16.00;99.90;;;;;;5025475;28;20759;-66
2021/09/28 09:17:50;;;;;;;7.77;1.90;;;16.30;99.90;;;;;;5037348;28;20204;-66
2021/09/28 09:20:24;;;;;;;5.07;1.93;;;16.50;99.90;;;;;;5025565;28;20279;-66
2021/09/28 09:22:53;;;;;;;4.73;1.90;;;16.60;99.90;;;;;;5034759;28;20628;-66
2021/09/28 09:25:23;;;;;;;6.20;2.50;;;16.60;99.90;;;;;;5040973;28;20562;-66
2021/09/28 09:27:53;;;;;;;4.73;1.90;;;16.60;99.90;;;;;;5036285;28;20196;-66
2021/09/28 09:30:23;;;;;;;5.10;2.30;;;16.80;99.90;;;;;;5023981;28;20604;-66
2021/09/28 09:32:56;;;;;;;5.10;2.00;;;16.80;99.90;;;;;;5036525;28;20675;-66
2021/09/28 09:35:26;;;;;;;5.53;2.10;;;16.90;99.90;;;;;;5035257;28;20561;-66
2021/09/28 09:38:05;;;;;;;10.70;2.60;;;17.10;99.90;;;;;;5025127;28;20225;-66
2021/09/28 09:40:34;;;;;;;8.67;1.93;;;17.30;99.90;;;;;;5027745;28;20228;-66
2021/09/28 09:43:04;;;;;;;9.40;2.07;;;17.20;99.90;;;;;;5019526;28;20204;-66
2021/09/28 09:45:32;;;;;;;6.47;2.00;;;17.20;99.90;;;;;;5032580;28;20357;-66
2021/09/28 09:48:23;;;;;;;8.03;2.03;;;17.10;99.90;;;;;;5028653;28;20210;-66
2021/09/28 09:50:56;;;;;;;4.47;2.00;;;17.30;99.90;;;;;;5032443;28;20194;-66
2021/09/28 09:53:25;;;;;;;17.33;2.53;;;17.50;99.90;;;;;;5030108;28;20276;-66
2021/09/28 09:55:53;;;;;;;6.40;2.30;;;17.50;99.90;;;;;;5018320;28;20210;-66
2021/09/28 09:58:23;;;;;;;7.90;1.83;;;17.60;99.90;;;;;;5024956;28;20467;-66
2021/09/28 10:00:53;;;;;;;5.30;1.77;;;17.70;99.90;;;;;;5018266;28;20722;-66
2021/09/28 10:03:23;;;;;;;5.33;2.00;;;17.70;99.90;;;;;;5037020;28;20237;-66
2021/09/28 10:05:52;;;;;;;6.23;2.20;;;17.80;99.90;;;;;;5016569;28;20288;-66
2021/09/28 10:08:21;;;;;;;3.37;1.63;;;17.70;99.90;;;;;;5018004;28;20284;-66
2021/09/28 10:10:58;;;;;;;7.17;1.80;;;17.70;99.90;;;;;;5019209;28;20216;-66
2021/09/28 10:13:51;;;;;;;4.80;2.23;;;17.60;99.90;;;;;;5015104;28;20646;-65
2021/09/28 10:16:38;;;;;;;8.60;2.00;;;17.80;99.90;;;;;;5016926;28;20273;-66
2021/09/28 10:19:45;;;;;;;5.20;2.07;;;17.90;99.90;;;;;;5031634;28;20252;-65
2021/09/28 10:22:41;;;;;;;5.33;2.00;;;18.10;99.90;;;;;;5030688;28;20287;-66
2021/09/28 10:25:34;;;;;;;4.20;1.93;;;18.00;99.90;;;;;;5017941;28;20209;-65
2021/09/28 10:28:30;;;;;;;4.27;1.80;;;18.00;99.90;;;;;;5013995;28;20676;-66
2021/09/28 10:31:00;;;;;;;7.40;1.93;;;18.10;99.90;;;;;;5019821;28;20743;-66
2021/09/28 10:33:35;;;;;;;8.23;2.10;;;18.10;99.90;;;;;;5014818;28;20614;-65
2021/09/28 10:36:18;;;;;;;11.57;2.70;;;18.30;99.90;;;;;;5016164;28;20253;-66
2021/09/28 10:38:58;;;;;;;84.13;15.40;;;18.40;99.90;;;;;;5017559;28;20376;-66
2021/09/28 10:41:38;;;;;;;8.97;2.00;;;18.60;99.90;;;;;;5018010;28;20256;-65
2021/09/28 10:44:41;;;;;;;6.97;2.00;;;18.70;99.90;;;;;;5020102;28;20196;-66
2021/09/28 10:47:30;;;;;;;7.77;2.03;;;18.70;99.90;;;;;;4951972;28;20202;-66
2021/09/28 10:50:32;;;;;;;5.83;1.90;;;18.70;99.90;;;;;;4956709;28;20229;-65
2021/09/28 10:53:04;;;;;;;4.50;2.00;;;18.80;99.90;;;;;;5007495;28;20251;-65
2021/09/28 10:55:41;;;;;;;7.70;1.97;;;18.80;99.90;;;;;;5025551;28;20219;-65
2021/09/28 10:58:17;;;;;;;7.37;2.20;;;19.00;99.90;;;;;;5020218;28;20208;-65
2021/09/28 11:01:12;;;;;;;9.83;2.07;;;19.10;99.90;;;;;;5017572;28;20668;-66
2021/09/28 11:04:01;;;;;;;11.60;2.83;;;19.10;99.90;;;;;;5014282;28;20225;-65
2021/09/28 11:06:56;;;;;;;7.90;2.53;;;19.30;99.90;;;;;;5017214;28;20268;-65
2021/09/28 11:09:43;;;;;;;9.50;2.40;;;19.30;99.90;;;;;;5015805;28;20204;-65
2021/09/28 11:12:12;;;;;;;10.73;2.77;;;19.20;99.90;;;;;;5033337;28;20668;-66
2021/09/28 11:14:41;;;;;;;7.97;3.30;;;19.20;99.90;;;;;;5016809;28;20205;-65
2021/09/28 11:17:15;;;;;;;11.07;3.13;;;19.20;99.90;;;;;;5016357;28;20218;-65
2021/09/28 11:19:44;;;;;;;5.63;2.60;;;19.30;99.90;;;;;;5015512;28;20666;-64
2021/09/28 11:22:23;;;;;;;7.63;2.80;;;19.50;99.90;;;;;;5017166;28;20205;-65
2021/09/28 11:24:53;;;;;;;6.47;2.90;;;19.40;99.90;;;;;;5017612;28;20564;-65
2021/09/28 11:27:22;;;;;;;3.53;2.60;;;19.40;99.90;;;;;;5017452;28;20305;-65
2021/09/28 11:29:54;;;;;;;3.97;2.23;;;19.20;99.90;;;;;;5016223;28;20190;-65
2021/09/28 11:32:22;;;;;;;5.67;2.30;;;19.30;99.90;;;;;;5014679;28;20256;-65
2021/09/28 11:34:51;;;;;;;4.20;2.17;;;19.30;99.90;;;;;;5016495;28;20228;-66
2021/09/28 11:37:21;;;;;;;3.80;1.90;;;19.50;99.90;;;;;;5016471;28;20306;-66
2021/09/28 11:39:50;;;;;;;6.30;1.60;;;19.70;99.90;;;;;;5018024;28;20609;-65
2021/09/28 11:42:23;;;;;;;6.70;1.33;;;19.90;99.90;;;;;;5018507;28;20210;-65
2021/09/28 11:44:55;;;;;;;7.80;1.77;;;19.90;99.90;;;;;;5019293;28;20709;-65
2021/09/28 11:47:27;;;;;;;6.90;1.60;;;20.00;99.90;;;;;;5014976;28;20564;-65
2021/09/28 11:50:02;;;;;;;5.23;1.50;;;19.80;99.90;;;;;;4999348;28;20249;-65
2021/09/28 11:52:31;;;;;;;8.00;1.60;;;19.90;99.90;;;;;;5014608;28;20223;-65
2021/09/28 11:55:00;;;;;;;5.27;1.43;;;19.80;99.90;;;;;;5018550;28;20747;-65
2021/09/28 11:57:33;;;;;;;3.40;1.40;;;19.70;99.90;;;;;;5020623;28;20652;-65
2021/09/28 12:00:03;;;;;;;7.13;1.73;;;19.70;99.90;;;;;;5024670;28;20225;-65
2021/09/28 12:02:33;;;;;;;8.80;1.77;;;19.80;99.90;;;;;;5017667;28;20638;-66
2021/09/28 12:08:02;;;;;;;5.60;1.63;;;20.00;99.90;;;;;;5017296;28;20213;-65
2021/09/28 12:10:39;;;;;;;5.37;1.60;;;20.10;99.90;;;;;;5017201;28;20210;-65
2021/09/28 12:13:33;;;;;;;5.60;1.60;;;20.30;99.90;;;;;;5032757;28;20209;-66
2021/09/28 12:16:14;;;;;;;3.90;2.00;;;20.20;99.90;;;;;;5018327;28;20312;-65
2021/09/28 12:18:43;;;;;;;3.93;2.17;;;20.30;99.90;;;;;;5020104;28;20259;-66
2021/09/28 12:21:24;;;;;;;4.17;1.83;;;20.10;99.90;;;;;;5020866;28;20281;-66
2021/09/28 12:24:14;;;;;;;12.27;2.23;;;19.80;99.90;;;;;;5017738;28;20192;-65
2021/09/28 12:26:44;;;;;;;7.00;1.90;;;19.60;99.90;;;;;;5020485;28;20247;-65
2021/09/28 12:29:18;;;;;;;4.77;1.80;;;19.50;99.90;;;;;;5035928;28;20190;-66
2021/09/28 12:31:47;;;;;;;2.60;1.87;;;19.60;99.90;;;;;;5019200;28;20197;-66
2021/09/28 12:34:17;;;;;;;5.50;2.00;;;19.80;99.90;;;;;;5034764;28;22652;-65
2021/09/28 12:36:45;;;;;;;4.57;2.03;;;19.70;99.90;;;;;;5019155;28;20639;-66
2021/09/28 12:39:24;;;;;;;5.83;1.93;;;19.60;99.90;;;;;;5019677;28;20285;-66
2021/09/28 12:42:02;;;;;;;6.10;2.00;;;19.40;99.90;;;;;;5019016;28;20203;-66
2021/09/28 12:44:35;;;;;;;8.53;2.17;;;19.30;99.90;;;;;;5020094;28;20204;-65
2021/09/28 12:47:22;;;;;;;3.97;1.63;;;19.10;99.90;;;;;;5019126;28;20185;-65
2021/09/28 12:49:51;;;;;;;4.30;1.90;;;19.30;99.90;;;;;;5017486;28;20205;-65
2021/09/28 12:52:22;;;;;;;4.23;1.90;;;19.40;99.90;;;;;;5022287;28;20287;-65
2021/09/28 12:54:51;;;;;;;4.70;2.00;;;19.60;99.90;;;;;;5018854;28;20206;-65
2021/09/28 12:57:20;;;;;;;4.60;1.93;;;19.80;99.90;;;;;;5049753;28;20221;-66
2021/09/28 12:59:50;;;;;;;2.83;2.27;;;19.80;99.90;;;;;;5034123;28;20546;-66
2021/09/28 13:02:23;;;;;;;7.43;2.37;;;19.80;99.90;;;;;;5015732;28;20272;-66
2021/09/28 13:04:52;;;;;;;4.23;2.50;;;19.80;99.90;;;;;;5018345;28;20232;-65
2021/09/28 13:07:20;;;;;;;3.53;2.10;;;19.70;99.90;;;;;;5018496;28;20259;-65
2021/09/28 13:09:49;;;;;;;3.20;2.33;;;19.60;99.90;;;;;;5019560;28;20200;-65
2021/09/28 13:12:18;;;;;;;6.13;2.63;;;19.50;99.90;;;;;;5019026;28;20273;-66